createdAt,value
2019-06-20T00:01:30.587Z,1.82
2019-06-20T00:06:36.095Z,2.10
2019-06-20T00:11:41.684Z,1.55
2019-06-20T00:16:48.477Z,1.65
2019-06-20T00:21:53.914Z,1.52
2019-06-20T00:26:59.321Z,1.45
2019-06-20T00:32:05.173Z,1.50
2019-06-20T00:37:10.562Z,1.80
2019-06-20T00:42:17.443Z,1.70
2019-06-20T00:47:22.994Z,2.00
2019-06-20T00:52:28.512Z,1.98
2019-06-20T00:57:34.484Z,1.40
2019-06-20T01:02:40.212Z,1.60
2019-06-20T01:07:45.635Z,1.70
2019-06-20T01:12:51.183Z,1.50
2019-06-20T01:17:56.826Z,1.32
2019-06-20T01:23:02.295Z,1.47
2019-06-20T01:28:08.401Z,1.90
2019-06-20T01:33:14.088Z,1.57
2019-06-20T01:38:19.871Z,1.72
2019-06-20T01:43:25.689Z,1.60
2019-06-20T01:48:31.226Z,1.65
2019-06-20T01:53:37.012Z,1.70
2019-06-20T01:58:42.517Z,1.77
2019-06-20T02:03:48.135Z,1.32
2019-06-20T02:08:53.550Z,1.72
2019-06-20T02:14:07.320Z,1.65
2019-06-20T02:19:06.516Z,1.65
2019-06-20T02:24:11.835Z,1.60
2019-06-20T02:29:17.321Z,1.85
2019-06-20T02:34:22.885Z,1.75
2019-06-20T02:39:28.304Z,1.47
2019-06-20T02:44:33.679Z,2.20
2019-06-20T02:49:39.195Z,1.70
2019-06-20T02:54:44.691Z,2.00
2019-06-20T02:59:50.474Z,1.70
2019-06-20T03:04:55.955Z,1.90
2019-06-20T03:10:01.867Z,1.32
2019-06-20T03:15:09.130Z,1.62
2019-06-20T03:20:15.408Z,1.55
2019-06-20T03:25:21.841Z,2.00
2019-06-20T03:30:27.357Z,1.87
2019-06-20T03:35:33.088Z,2.00
2019-06-20T03:40:38.483Z,1.70
2019-06-20T03:45:43.962Z,1.90
2019-06-20T03:50:50.489Z,2.00
2019-06-20T03:55:56.052Z,1.90
2019-06-20T04:01:01.696Z,1.82
2019-06-20T04:06:07.184Z,1.80
2019-06-20T04:11:12.647Z,2.08
2019-06-20T04:16:18.498Z,1.87
2019-06-20T04:21:23.955Z,2.10
2019-06-20T04:26:29.355Z,1.82
2019-06-20T04:31:35.247Z,2.12
2019-06-20T04:36:40.729Z,1.70
2019-06-20T04:41:46.211Z,1.80
2019-06-20T04:46:57.083Z,2.00
2019-06-20T04:52:02.478Z,1.72
2019-06-20T04:57:07.954Z,2.05
2019-06-20T05:02:15.062Z,2.37
2019-06-20T05:07:20.817Z,2.22
2019-06-20T05:12:26.593Z,2.20
2019-06-20T05:17:32.092Z,2.22
2019-06-20T05:22:37.302Z,2.10
2019-06-20T05:27:42.869Z,2.30
2019-06-20T05:32:48.887Z,1.98
2019-06-20T05:37:54.230Z,1.85
2019-06-20T05:43:01.478Z,2.30
2019-06-20T05:48:07.652Z,2.08
2019-06-20T05:53:13.552Z,2.35
2019-06-20T05:58:19.016Z,2.33
2019-06-20T06:03:24.942Z,2.40
2019-06-20T06:08:30.896Z,2.35
2019-06-20T06:13:36.478Z,2.50
2019-06-20T06:18:42.410Z,2.08
2019-06-20T06:23:48.896Z,2.10
2019-06-20T06:28:55.825Z,2.22
2019-06-20T06:34:01.151Z,2.27
2019-06-20T06:39:08.938Z,2.50
2019-06-20T06:44:14.215Z,2.67
2019-06-20T06:49:19.651Z,2.75
2019-06-20T06:54:25.332Z,2.65
2019-06-20T06:59:30.868Z,2.40
2019-06-20T07:04:36.251Z,2.05
2019-06-20T07:09:43.253Z,2.10
2019-06-20T07:14:49.675Z,2.12
2019-06-20T07:19:55.403Z,1.82
2019-06-20T07:25:01.324Z,2.20
2019-06-20T07:30:08.185Z,2.45
2019-06-20T07:35:14.922Z,1.87
2019-06-20T07:40:20.718Z,2.00
2019-06-20T07:45:27.687Z,2.20
2019-06-20T07:50:33.611Z,1.82
2019-06-20T07:55:39.201Z,2.00
2019-06-20T08:00:44.868Z,1.80
2019-06-20T08:05:50.371Z,1.82
2019-06-20T08:10:55.754Z,2.58
2019-06-20T08:16:03.585Z,2.22
2019-06-20T08:21:08.431Z,1.85
2019-06-20T08:26:13.941Z,1.92
2019-06-20T08:36:29.977Z,2.40
2019-06-20T08:41:35.459Z,2.15
2019-06-20T08:46:40.997Z,2.20
2019-06-20T08:51:46.529Z,1.70
2019-06-20T08:56:52.014Z,1.50
2019-06-20T09:01:59.831Z,1.17
2019-06-20T09:12:11.024Z,1.30
2019-06-20T09:17:16.417Z,1.10
2019-06-20T09:22:21.959Z,1.30
2019-06-20T09:27:27.476Z,1.12
2019-06-20T09:32:33.232Z,1.62
2019-06-20T09:37:38.672Z,1.20
2019-06-20T09:42:44.140Z,1.00
2019-06-20T09:47:51.772Z,1.05
2019-06-20T09:52:56.736Z,1.10
2019-06-20T09:58:02.713Z,1.02
2019-06-20T10:03:07.998Z,1.47
2019-06-20T10:08:14.226Z,1.22
2019-06-20T10:13:19.526Z,1.05
2019-06-20T10:18:25.273Z,1.10
2019-06-20T10:23:30.936Z,1.10
2019-06-20T10:28:36.292Z,1.10
2019-06-20T10:33:41.688Z,1.05
2019-06-20T10:38:48.042Z,1.35
2019-06-20T10:43:53.827Z,1.00
2019-06-20T10:48:59.439Z,1.17
2019-06-20T10:54:05.560Z,1.20
2019-06-20T10:59:10.941Z,1.07
2019-06-20T11:04:16.542Z,1.12
2019-06-20T11:09:22.108Z,1.17
2019-06-20T11:14:27.352Z,1.02
2019-06-20T11:19:33.257Z,1.50
2019-06-20T11:24:39.226Z,1.10
2019-06-20T11:29:46.535Z,1.52
2019-06-20T11:34:52.526Z,1.67
2019-06-20T11:39:58.116Z,1.42
2019-06-20T11:45:04.280Z,1.55
2019-06-20T11:50:10.387Z,1.50
2019-06-20T11:55:16.700Z,1.92
2019-06-20T12:00:23.030Z,1.80
2019-06-20T12:05:29.825Z,2.25
2019-06-20T12:10:35.206Z,1.67
2019-06-20T12:15:41.705Z,2.00
2019-06-20T12:20:48.800Z,2.45
2019-06-20T12:25:54.225Z,2.60
2019-06-20T12:30:59.623Z,2.47
2019-06-20T12:36:05.422Z,2.65
2019-06-20T12:41:11.266Z,2.65
2019-06-20T12:46:17.561Z,2.83
2019-06-20T12:51:22.987Z,2.60
2019-06-20T12:56:28.624Z,3.30
2019-06-20T13:01:38.942Z,2.95
2019-06-20T13:06:42.279Z,3.35
2019-06-20T13:11:49.287Z,3.12
2019-06-20T13:16:55.522Z,3.67
2019-06-20T13:22:00.885Z,3.70
2019-06-20T13:27:06.317Z,3.90
2019-06-20T13:32:11.787Z,4.30
2019-06-20T13:37:17.620Z,3.80
2019-06-20T13:42:23.301Z,3.35
2019-06-20T13:47:29.058Z,3.08
2019-06-20T13:52:34.535Z,3.42
2019-06-20T13:57:41.175Z,3.35
2019-06-20T14:02:48.986Z,4.05
2019-06-20T14:08:13.970Z,3.25
2019-06-20T14:13:19.863Z,3.20
2019-06-20T14:18:25.482Z,4.55
2019-06-20T14:23:31.121Z,3.20
2019-06-20T14:28:37.843Z,3.17
2019-06-20T14:33:46.113Z,2.72
2019-06-20T14:38:59.931Z,3.08
2019-06-20T14:44:05.547Z,3.05
2019-06-20T14:49:10.946Z,2.62
2019-06-20T14:54:19.604Z,3.10
2019-06-20T14:59:23.688Z,3.05
2019-06-20T15:04:29.432Z,3.12
2019-06-20T15:09:35.091Z,3.12
2019-06-20T15:14:41.353Z,4.03
2019-06-20T15:19:47.793Z,3.25
2019-06-20T15:24:55.688Z,3.50
2019-06-20T15:30:01.121Z,3.70
2019-06-20T15:35:07.287Z,4.00
2019-06-20T15:40:13.833Z,4.30
2019-06-20T15:45:20.164Z,3.90
2019-06-20T15:50:25.583Z,3.75
2019-06-20T15:55:31.078Z,3.75
2019-06-20T16:00:36.419Z,4.03
2019-06-20T16:05:41.961Z,3.50
2019-06-20T16:10:50.714Z,3.70
2019-06-20T16:15:56.628Z,3.12
2019-06-20T16:21:02.041Z,3.00
2019-06-20T16:26:08.236Z,3.10
2019-06-20T16:31:26.367Z,3.35
2019-06-20T16:36:22.138Z,4.03
2019-06-20T16:41:27.428Z,3.92
2019-06-20T16:46:32.885Z,4.42
2019-06-20T16:51:38.490Z,3.55
2019-06-20T16:56:44.156Z,3.72
2019-06-20T17:01:50.175Z,3.62
2019-06-20T17:06:55.489Z,4.20
2019-06-20T17:12:01.117Z,3.47
2019-06-20T17:17:06.385Z,4.60
2019-06-20T17:22:11.810Z,3.77
2019-06-20T17:27:17.216Z,3.90
2019-06-20T17:32:22.783Z,3.90
2019-06-20T17:37:28.131Z,3.92
2019-06-20T17:42:34.415Z,4.60
2019-06-20T17:47:45.708Z,5.08
2019-06-20T17:52:51.365Z,5.12
2019-06-20T17:57:56.873Z,5.90
2019-06-20T18:03:02.964Z,6.10
2019-06-20T18:08:15.185Z,5.60
2019-06-20T18:13:17.428Z,5.47
2019-06-20T18:18:24.729Z,5.65
2019-06-20T18:23:30.419Z,6.03
2019-06-20T18:28:36.091Z,6.53
2019-06-20T18:33:41.601Z,7.75
2019-06-20T18:38:47.246Z,7.87
2019-06-20T18:43:52.822Z,8.25
2019-06-20T18:48:58.248Z,7.92
2019-06-20T18:54:03.908Z,7.53
2019-06-20T18:59:09.744Z,5.92
2019-06-20T19:04:15.653Z,5.78
2019-06-20T19:09:21.521Z,5.10
2019-06-20T19:14:27.249Z,5.45
2019-06-20T19:19:32.643Z,5.20
2019-06-20T19:24:38.097Z,6.20
2019-06-20T19:29:44.353Z,5.03
2019-06-20T19:35:01.279Z,5.37
2019-06-20T19:39:57.684Z,7.25
2019-06-20T19:45:03.200Z,4.78
2019-06-20T19:50:09.218Z,5.15
2019-06-20T19:55:15.219Z,5.03
2019-06-20T20:00:21.202Z,5.28
2019-06-20T20:05:26.925Z,5.15
2019-06-20T20:10:43.589Z,3.90
2019-06-20T20:15:49.060Z,2.80
2019-06-20T20:20:54.463Z,2.70
2019-06-20T20:25:59.795Z,2.98
2019-06-20T20:31:05.247Z,2.47
2019-06-20T20:36:24.010Z,2.75
2019-06-20T20:41:18.523Z,3.20
2019-06-20T20:46:24.604Z,2.67
2019-06-20T20:51:31.691Z,3.05
2019-06-20T20:56:37.221Z,2.90
2019-06-20T21:01:42.527Z,3.05
2019-06-20T21:06:48.102Z,2.95
2019-06-20T21:11:53.518Z,2.98
2019-06-20T21:16:59.111Z,2.90
2019-06-20T21:22:04.979Z,2.37
2019-06-20T21:27:11.007Z,2.87
2019-06-20T21:32:16.773Z,2.92
2019-06-20T21:37:22.559Z,2.72
2019-06-20T21:42:29.412Z,2.55
2019-06-20T21:47:34.877Z,2.70
2019-06-20T21:52:40.277Z,2.45
2019-06-20T21:57:45.855Z,2.75
2019-06-20T22:02:51.191Z,2.70
2019-06-20T22:07:56.712Z,3.33
2019-06-20T22:13:04.038Z,2.95
2019-06-20T22:18:09.560Z,3.67
2019-06-20T22:23:15.072Z,2.85
2019-06-20T22:28:20.464Z,2.58
2019-06-20T22:33:26.246Z,2.45
2019-06-20T22:38:31.734Z,2.55
2019-06-20T22:43:37.180Z,2.15
2019-06-20T22:48:42.749Z,2.17
2019-06-20T22:53:48.739Z,2.10
2019-06-20T22:58:54.274Z,2.00
2019-06-20T23:03:59.871Z,2.42
2019-06-20T23:09:07.395Z,2.17
2019-06-20T23:14:12.949Z,2.92
2019-06-20T23:19:19.676Z,2.90
2019-06-20T23:24:25.176Z,3.12
2019-06-20T23:29:30.953Z,2.98
2019-06-20T23:34:36.508Z,3.37
2019-06-20T23:39:41.847Z,3.85
2019-06-20T23:44:47.817Z,4.78
2019-06-20T23:49:53.480Z,4.50
2019-06-20T23:54:59.682Z,4.67
